Decoded Metar for KTQE (TEKAMAH in NE, USA) (IATA:TQE) | Meteo·Mobile Aviation Weather
aviador You're here:

KTQE Decoded Metar

TEKAMAH in NE, USA
Report Time2018-11-12 21:54:00
UTC Time2018-11-12 22:53:19
Flight Rules vfr VFR
Wind340° at 10 kt
W.Decomp.*RWY 33: 10.0 kt HW 0.5 kt RCW
W.Rank340° ranks 9
Current wind is below 340° avg. (10.0)
Visibility9999 m
Phenomena:N/A
Clouds:Broken 037 Hf
Expected CloudBase > 3,200 ft AGL from Temp-Dew spread
Ceiling3,700 ft
Temp-4°C (ISA -17)
Dew Point-12°C (54% RH)
AAT-10.8°C
QNH1035 hPa
Density Alt-1,772 ft
Elevation1,024 ft
Report Wrong Elevation
Raw Report
KTQE 122154Z AUTO 34010KT 10SM BKN037 M04/M12 A3055 RMK AO2 SLP355
T10441117=

Extra information for KTQE:More info

Metar Taf Metar & Taf Last 4 Metars F.Rules Stats Wind Profile Meteogram Temp Stats Airport Information Weather charts Add Link Nearby VenuesMetar ALERT Operation Metar Decoded Social comments

AIRNAV info for KTQE